首页
METAR-TAF:

METAR-TAF

机场 :

里耶卡, 克罗地亚

纬度: 45-13N, 经度: 014-35E, 海拔: 85米

当前天气观测

该预报发布于15分钟前的23:30 UTC
风速7节,风向北转东北,在东转东北之间变化
温度 16°C
湿度 51%
气压 1017 hPa
能见度10公里或以上
多云层高于4700英尺

METAR: LDRI 312330Z 03007KT 350V070 9999 BKN047 16/06 Q1017

时间: 01:45 (23:45 UTC)

预报

该预报发布于20分钟前的23:25 UTC
预报有效从01日的 00点(UTC)到 02日的 00点(UTC)
风速10节,风向东北
能见度10公里或以上
多云层高于4500英尺
短暂存在
从 01日的 00点(UTC)到 01日的 18点(UTC)
风速10节,风向多变
几率 30% :
短暂存在
从 01日的 00点(UTC)到 01日的 06点(UTC)
风速8节,风向西北

TAF: LDRI 312325Z 0100/0200 04010KT 9999 BKN045 TX24/0114Z TN14/0104Z TEMPO 0100/0118 VRB10KT PROB30 TEMPO 0100/0106 32008KT

超过4000个机场的气象观测和天气预报(METAR&TAF报告)。

可查询的气象台以黄色和红色小点在地图上表示。

将鼠标移到小点上方,可查看气象台名称。

然后点击查看天气观测和预报。

如需切换地图:点击带黑十字的绿色按钮放大地图;点击带横线的绿色按钮缩小地图;或者点击绿色箭头查看邻近地区的地图。


METAR-TAF: